Terminal Aerodrome Forecast
Issued by NWS

Home | Current Version | Previous Version | Graphics & Text | Print | Product List | Glossary On
Versions: 1 2 3 4 5 6 7 8 9 10 11 12 13 14 15 16 17 18 19 20 21 22 23 24 25 26 27 28 29 30 31 32 33 34 35 36 37 38 39 40 41 42
000
FTUS43 KGRB 240525
TAFATW
TAF
KATW 240525Z 2406/2506 05014G25KT 5SM -SN OVC025
     FM240800 02015G26KT 1 1/2SM -SN OVC015
     FM241000 03017G28KT 3/4SM -SN OVC008
     FM241400 03018G30KT 2SM -SNPL BR OVC010
     FM241900 03019G30KT 1SM -SN BR OVC008
     FM242300 36015G27KT 1 1/2SM -SN BLSN OVC012=

USA.gov is the U.S. government's official web portal to all federal, state and local government web resources and services.